PWSweather.com
Personal Weather Stations
Station Observations
SHCOS1962
Stetson Hills, Colorado Springs, CO 80922

Stetson HillsColorado Springs, CO 80922

Lat: 38.9007273245919, Lon: -104.706439375877

Elevation: 6624

Station Type: Zephyr PWS-1000TD

http://www.stetsonweather.com

Latest ConditionsUpdated 7:15:05 AM MDT Tuesday, Jul 22, 2014
Currently Today's Max Today's Min Today's Average
Temperature 62.5°F16.9°C 62.5°F16.9°C 55.9°F13.3°C 58.9°F14.9°C
Dew Point 52.6°F11.4°C 52.6°F11.4°C 48.0°F8.9°C 49.2°F9.6°C
Winds 1.0 mph N1.6 kmh N 2.0 mph 3.2 kmh - 0.9 mph 1.4 kmh
Wind Gusts 3.0 mph4.8 kmh 5.0 mph8.0 kmh - -
Humidity 70% 78% 63% 70%
Pressure 30.29 in1025.7 mb 30.29 in1025.7 mb 30.24 in1024.0 mb -
Hour Temp Dew Point Humidity Winds Wind Gusts Pressure Precip Precip Rate Daily Precip Total
07:15 AM 62.5°F16.9°C 52.6°F11.4°C 70% 1.0 mph N1.6 kmh N 3.0 mph4.8 kmh 30.29 in1025.7 mb 0.00 in0.0 mm 0.00 in/hr0.0 mm/hr 0.00 in0.0 mm
07:00 AM 60.1°F15.6°C 51.0°F10.6°C 72% 1.0 mph 1.6 kmh 3.0 mph4.8 kmh 30.29 in1025.7 mb 0.00 in0.0 mm 0.00 in/hr0.0 mm/hr 0.00 in0.0 mm
06:45 AM 58.7°F14.8°C 50.5°F10.3°C 74% 1.0 mph N1.6 kmh N 2.0 mph3.2 kmh 30.28 in1025.4 mb 0.00 in0.0 mm 0.00 in/hr0.0 mm/hr 0.00 in0.0 mm
06:30 AM 57.6°F14.2°C 50.0°F10.0°C 76% 1.0 mph 1.6 kmh 3.0 mph4.8 kmh 30.28 in1025.4 mb 0.00 in0.0 mm 0.00 in/hr0.0 mm/hr 0.00 in0.0 mm
06:15 AM 56.8°F13.8°C 49.7°F9.8°C 77% 1.0 mph 1.6 kmh 2.0 mph3.2 kmh 30.28 in1025.4 mb 0.00 in0.0 mm 0.00 in/hr0.0 mm/hr 0.00 in0.0 mm
06:00 AM 56.5°F13.6°C 49.4°F9.7°C 77% 1.0 mph 1.6 kmh 3.0 mph4.8 kmh 30.27 in1025.1 mb 0.00 in0.0 mm 0.00 in/hr0.0 mm/hr 0.00 in0.0 mm
05:45 AM 55.9°F13.3°C 49.2°F9.6°C 78% 2.0 mph 3.2 kmh 3.0 mph4.8 kmh 30.27 in1025.1 mb 0.00 in0.0 mm 0.00 in/hr0.0 mm/hr 0.00 in0.0 mm
05:30 AM 56.5°F13.6°C 49.4°F9.7°C 77% 2.0 mph N3.2 kmh N 5.0 mph8.0 kmh 30.27 in1025.1 mb 0.00 in0.0 mm 0.00 in/hr0.0 mm/hr 0.00 in0.0 mm
05:15 AM 56.5°F13.6°C 49.0°F9.4°C 76% 1.0 mph 1.6 kmh 3.0 mph4.8 kmh 30.28 in1025.4 mb 0.00 in0.0 mm 0.00 in/hr0.0 mm/hr 0.00 in0.0 mm
05:00 AM 57.0°F13.9°C 49.1°F9.5°C 75% 2.0 mph N3.2 kmh N 5.0 mph8.0 kmh 30.27 in1025.1 mb 0.00 in0.0 mm 0.00 in/hr0.0 mm/hr 0.00 in0.0 mm
04:45 AM 57.2°F14.0°C 49.0°F9.4°C 74% 1.0 mph 1.6 kmh 3.0 mph4.8 kmh 30.27 in1025.1 mb 0.00 in0.0 mm 0.00 in/hr0.0 mm/hr 0.00 in0.0 mm
04:30 AM 57.4°F14.1°C 48.8°F9.3°C 73% 1.0 mph N1.6 kmh N 2.0 mph3.2 kmh 30.27 in1025.1 mb 0.00 in0.0 mm 0.00 in/hr0.0 mm/hr 0.00 in0.0 mm
04:15 AM 57.4°F14.1°C 48.4°F9.1°C 72% 1.0 mph N1.6 kmh N 2.0 mph3.2 kmh 30.27 in1025.1 mb 0.00 in0.0 mm 0.00 in/hr0.0 mm/hr 0.00 in0.0 mm
04:00 AM 57.4°F14.1°C 48.4°F9.1°C 72% 1.0 mph N1.6 kmh N 2.0 mph3.2 kmh 30.27 in1025.1 mb 0.00 in0.0 mm 0.00 in/hr0.0 mm/hr 0.00 in0.0 mm
03:45 AM 57.6°F14.2°C 48.6°F9.2°C 72% 1.0 mph N1.6 kmh N 1.0 mph1.6 kmh 30.27 in1025.1 mb 0.00 in0.0 mm 0.00 in/hr0.0 mm/hr 0.00 in0.0 mm
03:30 AM 57.7°F14.3°C 48.0°F8.9°C 70% 1.0 mph 1.6 kmh 2.0 mph3.2 kmh 30.27 in1025.1 mb 0.00 in0.0 mm 0.00 in/hr0.0 mm/hr 0.00 in0.0 mm
03:15 AM 58.7°F14.8°C 48.6°F9.2°C 69% Calm Calm 2.0 mph3.2 kmh 30.27 in1025.1 mb 0.00 in0.0 mm 0.00 in/hr0.0 mm/hr 0.00 in0.0 mm
03:00 AM 59.5°F15.3°C 49.4°F9.7°C 69% Calm Calm 1.0 mph1.6 kmh 30.26 in1024.7 mb 0.00 in0.0 mm 0.00 in/hr0.0 mm/hr 0.00 in0.0 mm
02:45 AM 60.1°F15.6°C 48.7°F9.3°C 66% Calm Calm 2.0 mph3.2 kmh 30.26 in1024.7 mb 0.00 in0.0 mm 0.00 in/hr0.0 mm/hr 0.00 in0.0 mm
02:30 AM 59.6°F15.3°C 48.6°F9.2°C 67% Calm Calm 1.0 mph1.6 kmh 30.25 in1024.4 mb 0.00 in0.0 mm 0.00 in/hr0.0 mm/hr 0.00 in0.0 mm
02:15 AM 59.5°F15.3°C 48.6°F9.2°C 67% Calm Calm 1.0 mph1.6 kmh 30.24 in1024.0 mb 0.00 in0.0 mm 0.00 in/hr0.0 mm/hr 0.00 in0.0 mm
02:00 AM 59.7°F15.4°C 48.7°F9.3°C 67% 2.0 mph N3.2 kmh N 3.0 mph4.8 kmh 30.24 in1024.0 mb 0.00 in0.0 mm 0.00 in/hr0.0 mm/hr 0.00 in0.0 mm
01:45 AM 60.1°F15.6°C 49.1°F9.5°C 67% 1.0 mph 1.6 kmh 3.0 mph4.8 kmh 30.25 in1024.4 mb 0.00 in0.0 mm 0.00 in/hr0.0 mm/hr 0.00 in0.0 mm
01:30 AM 60.2°F15.7°C 48.8°F9.3°C 66% Calm Calm 1.0 mph1.6 kmh 30.25 in1024.4 mb 0.00 in0.0 mm 0.00 in/hr0.0 mm/hr 0.00 in0.0 mm
01:15 AM 60.1°F15.6°C 48.7°F9.3°C 66% 1.0 mph 1.6 kmh 2.0 mph3.2 kmh 30.25 in1024.4 mb 0.00 in0.0 mm 0.00 in/hr0.0 mm/hr 0.00 in0.0 mm
01:00 AM 60.6°F15.9°C 49.2°F9.6°C 66% Calm Calm 1.0 mph1.6 kmh 30.25 in1024.4 mb 0.00 in0.0 mm 0.00 in/hr0.0 mm/hr 0.00 in0.0 mm
12:45 AM 61.3°F16.3°C 49.0°F9.4°C 64% 2.0 mph N3.2 kmh N 5.0 mph8.0 kmh 30.25 in1024.4 mb 0.00 in0.0 mm 0.00 in/hr0.0 mm/hr 0.00 in0.0 mm
12:30 AM 61.7°F16.5°C 49.4°F9.7°C 64% 1.0 mph N1.6 kmh N 2.0 mph3.2 kmh 30.25 in1024.4 mb 0.00 in0.0 mm 0.00 in/hr0.0 mm/hr 0.00 in0.0 mm
12:15 AM 61.9°F16.6°C 49.1°F9.5°C 63% 1.0 mph N1.6 kmh N 2.0 mph3.2 kmh 30.25 in1024.4 mb 0.00 in0.0 mm 0.00 in/hr0.0 mm/hr 0.00 in0.0 mm
12:00 AM 62.4°F16.9°C 49.7°F9.8°C 63% 1.0 mph N1.6 kmh N 1.0 mph1.6 kmh 30.24 in1024.0 mb 0.00 in0.0 mm 0.00 in/hr0.0 mm/hr 0.00 in0.0 mm